createdAt,value
2019-01-16T00:00:37.651Z,44.03
2019-01-16T00:01:37.327Z,44.07
2019-01-16T00:02:39.118Z,44.04
2019-01-16T00:03:37.695Z,44.07
2019-01-16T00:04:37.173Z,44.07
2019-01-16T00:05:37.299Z,44.1
2019-01-16T00:06:37.974Z,44.11
2019-01-16T00:07:37.240Z,44.09
2019-01-16T00:08:37.332Z,44.16
2019-01-16T00:09:37.891Z,44.09
2019-01-16T00:10:37.382Z,44.11
2019-01-16T00:11:37.501Z,44.12
2019-01-16T00:12:37.330Z,44.13
2019-01-16T00:13:37.292Z,44.12
2019-01-16T00:14:37.724Z,44.12
2019-01-16T00:15:37.372Z,44.12
2019-01-16T00:16:37.853Z,44.11
2019-01-16T00:17:37.564Z,44.17
2019-01-16T00:18:37.681Z,44.13
2019-01-16T00:19:37.383Z,44.16
2019-01-16T00:20:37.307Z,44.13
2019-01-16T00:21:37.929Z,44.12
2019-01-16T00:22:37.421Z,44.16
2019-01-16T00:23:37.206Z,44.13
2019-01-16T00:24:37.397Z,44.17
2019-01-16T00:25:39.043Z,44.15
2019-01-16T00:26:37.214Z,44.15
2019-01-16T00:27:37.724Z,44.15
2019-01-16T00:28:37.169Z,44.13
2019-01-16T00:29:37.324Z,44.16
2019-01-16T00:30:37.187Z,44.19
2019-01-16T00:31:37.472Z,44.2
2019-01-16T00:32:37.577Z,44.16
2019-01-16T00:33:37.172Z,44.21
2019-01-16T00:34:37.574Z,44.16
2019-01-16T00:35:37.154Z,44.16
2019-01-16T00:36:37.470Z,44.15
2019-01-16T00:37:37.204Z,44.19
2019-01-16T00:38:37.198Z,44.2
2019-01-16T00:39:37.078Z,44.17
2019-01-16T00:40:38.204Z,44.16
2019-01-16T00:41:37.047Z,44.19
2019-01-16T00:42:37.341Z,44.19
2019-01-16T00:43:37.229Z,44.18
2019-01-16T00:44:37.319Z,44.22
2019-01-16T00:45:39.038Z,44.2
2019-01-16T00:46:37.739Z,44.17
2019-01-16T00:47:37.481Z,44.2
2019-01-16T00:48:37.231Z,44.2
2019-01-16T00:49:37.718Z,44.25
2019-01-16T00:50:37.329Z,44.2
2019-01-16T00:51:37.250Z,44.22
2019-01-16T00:52:37.336Z,44.25
2019-01-16T00:53:37.322Z,44.24
2019-01-16T00:54:37.555Z,44.24
2019-01-16T00:55:37.742Z,44.23
2019-01-16T00:56:37.716Z,44.25
2019-01-16T00:57:37.263Z,44.22
2019-01-16T00:58:39.159Z,44.2
2019-01-16T00:59:37.203Z,44.26
2019-01-16T01:00:37.407Z,44.24
2019-01-16T01:01:37.275Z,44.19
2019-01-16T01:02:37.126Z,44.28
2019-01-16T01:03:37.319Z,44.26
2019-01-16T01:04:37.324Z,44.23
2019-01-16T01:05:37.195Z,44.25
2019-01-16T01:06:38.124Z,44.25
2019-01-16T01:07:37.399Z,44.23
2019-01-16T01:08:37.497Z,44.21
2019-01-16T01:09:37.577Z,44.22
2019-01-16T01:10:37.289Z,44.21
2019-01-16T01:11:37.145Z,44.26
2019-01-16T01:12:37.203Z,44.22
2019-01-16T01:13:37.156Z,44.23
2019-01-16T01:14:37.386Z,44.21
2019-01-16T01:15:37.348Z,44.25
2019-01-16T01:16:37.194Z,44.22
2019-01-16T01:17:37.393Z,44.23
2019-01-16T01:18:41.439Z,44.21
2019-01-16T01:19:37.401Z,44.21
2019-01-16T01:20:37.311Z,44.27
2019-01-16T01:21:37.172Z,44.24
2019-01-16T01:22:37.218Z,44.25
2019-01-16T01:23:37.247Z,44.25
2019-01-16T01:24:37.082Z,44.26
2019-01-16T01:25:37.429Z,44.26
2019-01-16T01:26:37.264Z,44.27
2019-01-16T01:27:37.086Z,44.24
2019-01-16T01:28:37.207Z,44.25
2019-01-16T01:29:37.434Z,44.26
2019-01-16T01:30:37.222Z,44.3
2019-01-16T01:31:37.489Z,44.27
2019-01-16T01:32:37.292Z,44.28
2019-01-16T01:33:37.481Z,44.26
2019-01-16T01:34:37.457Z,44.26
2019-01-16T01:35:37.420Z,44.27
2019-01-16T01:36:37.421Z,44.27
2019-01-16T01:37:37.406Z,44.29
2019-01-16T01:38:37.927Z,44.22
2019-01-16T01:39:38.977Z,44.24
2019-01-16T01:40:37.509Z,44.26
2019-01-16T01:41:37.332Z,44.29
2019-01-16T01:42:37.176Z,44.28
2019-01-16T01:43:39.023Z,44.27
2019-01-16T01:44:37.930Z,44.29
2019-01-16T01:45:37.159Z,44.28
2019-01-16T01:46:37.448Z,44.24
2019-01-16T01:47:37.829Z,44.28
2019-01-16T01:48:40.539Z,44.24
2019-01-16T01:49:37.775Z,44.27
2019-01-16T01:50:37.486Z,44.31
2019-01-16T01:51:37.284Z,44.25
2019-01-16T01:52:37.178Z,44.27
2019-01-16T01:53:37.393Z,44.26
2019-01-16T01:54:37.367Z,44.22
2019-01-16T01:55:38.193Z,44.27
2019-01-16T01:56:38.182Z,44.27
2019-01-16T01:57:37.180Z,44.27
2019-01-16T01:58:37.370Z,44.26
2019-01-16T01:59:37.900Z,44.22
2019-01-16T02:00:39.045Z,44.25
2019-01-16T02:01:37.497Z,44.24
2019-01-16T02:02:40.066Z,44.24
2019-01-16T02:03:37.429Z,44.24
2019-01-16T02:04:37.315Z,44.19
2019-01-16T02:05:37.081Z,44.24
2019-01-16T02:06:37.287Z,44.18
2019-01-16T02:07:37.190Z,44.2
2019-01-16T02:08:37.095Z,44.23
2019-01-16T02:09:37.166Z,44.22
2019-01-16T02:10:37.633Z,44.22
2019-01-16T02:11:37.104Z,44.27
2019-01-16T02:12:37.324Z,44.26
2019-01-16T02:13:37.787Z,44.25
2019-01-16T02:14:37.052Z,44.26
2019-01-16T02:15:37.261Z,44.23
2019-01-16T02:16:37.112Z,44.23
2019-01-16T02:17:37.224Z,44.23
2019-01-16T02:18:37.490Z,44.25
2019-01-16T02:19:37.379Z,44.24
2019-01-16T02:20:37.858Z,44.21
2019-01-16T02:21:38.115Z,44.28
2019-01-16T02:22:37.068Z,44.26
2019-01-16T02:23:37.266Z,44.26
2019-01-16T02:24:37.231Z,44.26
2019-01-16T02:25:37.115Z,44.26
2019-01-16T02:26:37.188Z,44.29
2019-01-16T02:27:37.450Z,44.29
2019-01-16T02:28:37.478Z,44.25
2019-01-16T02:29:37.184Z,44.26
2019-01-16T02:30:37.372Z,44.24
2019-01-16T02:31:37.128Z,44.26
2019-01-16T02:32:37.266Z,44.28
2019-01-16T02:33:37.227Z,44.28
2019-01-16T02:34:37.414Z,44.29
2019-01-16T02:35:37.387Z,44.29
2019-01-16T02:36:37.355Z,44.25
2019-01-16T02:37:37.164Z,44.27
2019-01-16T02:38:37.490Z,44.25
2019-01-16T02:39:37.546Z,44.26
2019-01-16T02:40:37.490Z,44.29
2019-01-16T02:41:37.416Z,44.29
2019-01-16T02:42:37.258Z,44.27
2019-01-16T02:43:37.196Z,44.27
2019-01-16T02:44:37.656Z,44.29
2019-01-16T02:45:37.146Z,44.27
2019-01-16T02:46:37.601Z,44.27
2019-01-16T02:47:37.213Z,44.22
2019-01-16T02:48:37.195Z,44.27
2019-01-16T02:49:37.134Z,44.3
2019-01-16T02:50:37.561Z,44.29
2019-01-16T02:51:37.023Z,44.27
2019-01-16T02:52:37.347Z,44.27
2019-01-16T02:53:37.201Z,44.25
2019-01-16T02:54:37.054Z,44.28
2019-01-16T02:55:37.366Z,44.32
2019-01-16T02:56:37.152Z,44.27
2019-01-16T02:57:37.273Z,44.27
2019-01-16T02:58:37.206Z,44.25
2019-01-16T02:59:37.323Z,44.28
2019-01-16T03:00:37.186Z,44.27
2019-01-16T03:01:37.237Z,44.28
2019-01-16T03:02:37.373Z,44.26
2019-01-16T03:03:37.362Z,44.3
2019-01-16T03:04:37.407Z,44.29
2019-01-16T03:05:37.319Z,44.28
2019-01-16T03:06:37.183Z,44.3
2019-01-16T03:07:37.254Z,44.32
2019-01-16T03:08:37.372Z,44.33
2019-01-16T03:09:37.188Z,44.32
2019-01-16T03:10:37.349Z,44.3
2019-01-16T03:11:37.073Z,44.32
2019-01-16T03:12:37.479Z,44.3
2019-01-16T03:13:37.332Z,44.34
2019-01-16T03:14:37.152Z,44.28
2019-01-16T03:15:37.286Z,44.28
2019-01-16T03:16:37.332Z,44.29
2019-01-16T03:17:37.121Z,44.29
2019-01-16T03:18:37.587Z,44.3
2019-01-16T03:19:37.388Z,44.28
2019-01-16T03:20:37.313Z,44.25
2019-01-16T03:21:37.677Z,44.31
2019-01-16T03:22:38.100Z,44.3
2019-01-16T03:23:37.128Z,44.35
2019-01-16T03:24:37.818Z,44.31
2019-01-16T03:25:37.280Z,44.32
2019-01-16T03:26:37.409Z,44.3
2019-01-16T03:27:37.179Z,44.31
2019-01-16T03:28:37.407Z,44.3
2019-01-16T03:29:37.443Z,44.35
2019-01-16T03:30:37.407Z,44.3
2019-01-16T03:31:37.644Z,44.32
2019-01-16T03:32:37.395Z,44.31
2019-01-16T03:33:37.297Z,44.28
2019-01-16T03:34:37.748Z,44.31
2019-01-16T03:35:37.173Z,44.34
2019-01-16T03:36:37.420Z,44.31
2019-01-16T03:37:37.402Z,44.3
2019-01-16T03:38:37.441Z,44.33
2019-01-16T03:39:37.361Z,44.32
2019-01-16T03:40:37.179Z,44.27
2019-01-16T03:41:37.462Z,44.28
2019-01-16T03:42:38.181Z,44.33
2019-01-16T03:43:37.829Z,44.34
2019-01-16T03:44:38.314Z,44.34
2019-01-16T03:45:37.126Z,44.34
2019-01-16T03:46:37.436Z,44.29
2019-01-16T03:47:37.761Z,44.35
2019-01-16T03:48:37.306Z,44.31
2019-01-16T03:49:37.963Z,44.31
2019-01-16T03:50:37.717Z,44.3
2019-01-16T03:51:37.298Z,44.35
2019-01-16T03:52:38.263Z,44.32
2019-01-16T03:53:37.440Z,44.34
2019-01-16T03:54:37.179Z,44.32
2019-01-16T03:55:37.236Z,44.32
2019-01-16T03:56:37.152Z,44.32
2019-01-16T03:57:37.881Z,44.28
2019-01-16T03:58:37.107Z,44.31
2019-01-16T03:59:37.423Z,44.32
2019-01-16T04:00:37.108Z,44.34
2019-01-16T04:01:37.138Z,44.35
2019-01-16T04:02:37.224Z,44.32
2019-01-16T04:03:37.711Z,44.35
2019-01-16T04:04:37.255Z,44.31
2019-01-16T04:05:37.096Z,44.34
2019-01-16T04:06:37.690Z,44.31
2019-01-16T04:07:37.357Z,44.32
2019-01-16T04:08:37.355Z,44.31
2019-01-16T04:09:38.309Z,44.36
2019-01-16T04:10:37.549Z,44.36
2019-01-16T04:11:37.469Z,44.34
2019-01-16T04:12:37.507Z,44.37
2019-01-16T04:13:38.390Z,44.32
2019-01-16T04:14:37.202Z,44.33
2019-01-16T04:15:37.434Z,44.33
2019-01-16T04:16:37.103Z,44.3
2019-01-16T04:17:37.173Z,44.33
2019-01-16T04:18:37.547Z,44.33
2019-01-16T04:19:36.974Z,44.33
2019-01-16T04:20:38.339Z,44.31
2019-01-16T04:21:38.114Z,44.27
2019-01-16T04:22:37.260Z,44.28
2019-01-16T04:23:37.249Z,44.33
2019-01-16T04:24:37.314Z,44.34
2019-01-16T04:25:37.428Z,44.3
2019-01-16T04:26:37.228Z,44.33
2019-01-16T04:27:39.099Z,44.32
2019-01-16T04:28:37.266Z,44.3
2019-01-16T04:29:37.256Z,44.3
2019-01-16T04:30:37.423Z,44.31
2019-01-16T04:31:37.414Z,44.28
2019-01-16T04:32:37.529Z,44.31
2019-01-16T04:33:37.486Z,44.3
2019-01-16T04:34:37.033Z,44.3
2019-01-16T04:35:37.356Z,44.3
2019-01-16T04:36:37.273Z,44.32
2019-01-16T04:37:37.023Z,44.26
2019-01-16T04:38:37.110Z,44.31
2019-01-16T04:39:37.172Z,44.29
2019-01-16T04:40:37.124Z,44.26
2019-01-16T04:41:37.224Z,44.26
2019-01-16T04:42:37.344Z,44.29
2019-01-16T04:43:37.230Z,44.35
2019-01-16T04:44:37.219Z,44.34
2019-01-16T04:45:37.119Z,44.33
2019-01-16T04:46:37.333Z,44.35
2019-01-16T04:47:37.324Z,44.34
2019-01-16T04:48:37.566Z,44.37
2019-01-16T04:49:37.198Z,44.33
2019-01-16T04:50:37.237Z,44.35
2019-01-16T04:51:37.208Z,44.34
2019-01-16T04:52:37.175Z,44.35
2019-01-16T04:53:37.025Z,44.3
2019-01-16T04:54:37.195Z,44.25
2019-01-16T04:55:38.105Z,44.22
2019-01-16T04:56:37.336Z,44.25
2019-01-16T04:57:37.251Z,44.2
2019-01-16T04:58:37.239Z,44.19
2019-01-16T04:59:38.982Z,44.17
2019-01-16T05:00:37.217Z,44.18
2019-01-16T05:01:39.151Z,44.16
2019-01-16T05:02:37.308Z,44.16
2019-01-16T05:03:37.513Z,44.13
2019-01-16T05:04:37.538Z,44.18
2019-01-16T05:05:37.355Z,44.13
2019-01-16T05:06:37.078Z,44.11
2019-01-16T05:07:37.337Z,44.18
2019-01-16T05:08:37.367Z,44.1
2019-01-16T05:09:37.799Z,44.11
2019-01-16T05:10:37.214Z,44.12
2019-01-16T05:11:37.185Z,44.06
2019-01-16T05:12:37.843Z,44.1
2019-01-16T05:13:37.855Z,44.13
2019-01-16T05:14:39.223Z,44.02
2019-01-16T05:15:37.146Z,44.06
2019-01-16T05:16:37.567Z,44.02
2019-01-16T05:17:37.420Z,43.95
2019-01-16T05:18:37.135Z,43.95
2019-01-16T05:19:39.321Z,44.01
2019-01-16T05:20:37.621Z,43.91
2019-01-16T05:21:38.077Z,43.96
2019-01-16T05:22:37.024Z,44.02
2019-01-16T05:23:37.177Z,43.94
2019-01-16T05:24:37.710Z,43.89
2019-01-16T05:25:39.214Z,43.94
2019-01-16T05:26:37.223Z,43.94
2019-01-16T05:27:37.103Z,43.96
2019-01-16T05:28:37.438Z,43.95
2019-01-16T05:29:37.564Z,43.92
2019-01-16T05:30:37.580Z,43.94
2019-01-16T05:31:37.188Z,43.93
2019-01-16T05:32:37.265Z,43.88
2019-01-16T05:33:37.134Z,43.94
2019-01-16T05:34:37.185Z,43.96
2019-01-16T05:35:37.824Z,43.92
2019-01-16T05:36:37.579Z,43.96
2019-01-16T05:37:37.265Z,43.93
2019-01-16T05:38:37.420Z,43.9
2019-01-16T05:39:37.132Z,43.93
2019-01-16T05:40:37.269Z,43.97
2019-01-16T05:41:37.454Z,43.96
2019-01-16T05:42:37.454Z,43.99
2019-01-16T05:43:37.484Z,43.92
2019-01-16T05:44:37.002Z,43.97
2019-01-16T05:45:37.737Z,43.98
2019-01-16T05:46:37.814Z,43.95
2019-01-16T05:47:37.899Z,43.93
2019-01-16T05:48:37.481Z,43.95
2019-01-16T05:49:37.513Z,43.93
2019-01-16T05:50:37.123Z,43.95
2019-01-16T05:51:37.068Z,43.93
2019-01-16T05:52:37.134Z,43.92
2019-01-16T05:53:37.310Z,43.93
2019-01-16T05:54:37.195Z,43.91
2019-01-16T05:55:37.250Z,43.91
2019-01-16T05:56:38.963Z,43.94
2019-01-16T05:57:37.138Z,43.94
2019-01-16T05:58:36.922Z,43.95
2019-01-16T05:59:37.084Z,43.93
2019-01-16T06:00:37.384Z,43.97
2019-01-16T06:01:37.115Z,43.97
2019-01-16T06:02:37.377Z,43.93
2019-01-16T06:03:37.094Z,43.93
2019-01-16T06:04:37.301Z,43.94
2019-01-16T06:05:37.091Z,43.9
2019-01-16T06:06:37.709Z,43.92
2019-01-16T06:07:38.908Z,43.9
2019-01-16T06:08:37.273Z,43.9
2019-01-16T06:09:37.138Z,43.93
2019-01-16T06:10:38.910Z,43.93
2019-01-16T06:11:37.365Z,43.88
2019-01-16T06:12:37.242Z,43.94
2019-01-16T06:13:37.068Z,43.92
2019-01-16T06:14:37.130Z,43.91
2019-01-16T06:15:37.356Z,43.92
2019-01-16T06:16:37.238Z,43.86
2019-01-16T06:17:37.313Z,43.9
2019-01-16T06:18:37.413Z,43.87
2019-01-16T06:19:37.066Z,43.9
2019-01-16T06:20:37.172Z,43.85
2019-01-16T06:21:37.068Z,43.87
2019-01-16T06:22:37.058Z,43.82
2019-01-16T06:23:37.188Z,43.81
2019-01-16T06:24:37.595Z,43.83
2019-01-16T06:25:37.002Z,43.81
2019-01-16T06:26:37.060Z,43.85
2019-01-16T06:27:36.938Z,43.86
2019-01-16T06:28:37.122Z,43.83
2019-01-16T06:29:37.206Z,43.91
2019-01-16T06:30:37.180Z,43.78
2019-01-16T06:31:36.950Z,43.72
2019-01-16T06:32:37.658Z,43.61
2019-01-16T06:33:37.359Z,43.62
2019-01-16T06:34:37.084Z,43.88
2019-01-16T06:35:37.240Z,43.9
2019-01-16T06:36:37.041Z,44.33
2019-01-16T06:37:37.475Z,44.35
2019-01-16T06:38:37.379Z,44.38
2019-01-16T06:39:37.200Z,44.48
2019-01-16T06:40:37.133Z,44.37
2019-01-16T06:41:37.277Z,44.55
2019-01-16T06:42:38.912Z,44.57
2019-01-16T06:43:39.020Z,44.47
2019-01-16T06:44:37.472Z,44.43
2019-01-16T06:45:36.968Z,44.38
2019-01-16T06:46:37.192Z,44.4
2019-01-16T06:47:37.464Z,44.42
2019-01-16T06:48:37.314Z,44.41
2019-01-16T06:49:37.373Z,44.34
2019-01-16T06:50:36.951Z,44.44
2019-01-16T06:51:37.879Z,44.32
2019-01-16T06:52:37.250Z,44.29
2019-01-16T06:53:37.538Z,44.32
2019-01-16T06:54:37.138Z,44.25
2019-01-16T06:55:37.588Z,44.24
2019-01-16T06:56:37.462Z,44.49
2019-01-16T06:57:36.909Z,44.17
2019-01-16T06:58:37.559Z,44.16
2019-01-16T06:59:37.431Z,44.11
2019-01-16T07:00:37.430Z,44.24
2019-01-16T07:01:37.169Z,44.5
2019-01-16T07:02:37.360Z,43.92
2019-01-16T07:03:37.312Z,43.83
2019-01-16T07:04:37.196Z,43.84
2019-01-16T07:05:37.028Z,43.78
2019-01-16T07:06:37.223Z,43.79
2019-01-16T07:07:38.203Z,43.78
2019-01-16T07:08:37.136Z,43.78
2019-01-16T07:09:38.303Z,43.8
2019-01-16T07:10:36.841Z,43.81
2019-01-16T07:11:37.258Z,43.83
2019-01-16T07:12:38.086Z,43.78
2019-01-16T07:13:37.497Z,43.73
2019-01-16T07:14:37.065Z,43.73
2019-01-16T07:15:37.277Z,43.77
2019-01-16T07:16:37.098Z,43.81
2019-01-16T07:17:37.888Z,43.74
2019-01-16T07:18:37.139Z,43.75
2019-01-16T07:19:37.110Z,44.08
2019-01-16T07:20:37.401Z,44.15
2019-01-16T07:21:37.028Z,44.39
2019-01-16T07:22:37.248Z,44.34
2019-01-16T07:23:37.374Z,44.23
2019-01-16T07:24:37.350Z,44.18
2019-01-16T07:25:37.069Z,44.32
2019-01-16T07:26:37.425Z,44.3
2019-01-16T07:27:37.087Z,44.37
2019-01-16T07:28:37.171Z,44.48
2019-01-16T07:29:37.273Z,44.24
2019-01-16T07:30:36.924Z,44.25
2019-01-16T07:31:37.128Z,44.39
2019-01-16T07:32:37.032Z,44.1
2019-01-16T07:33:37.284Z,44.53
2019-01-16T07:34:37.162Z,44.41
2019-01-16T07:35:37.410Z,44.16
2019-01-16T07:36:37.362Z,44.04
2019-01-16T07:37:37.504Z,43.99
2019-01-16T07:38:38.449Z,43.98
2019-01-16T07:39:37.597Z,43.85
2019-01-16T07:40:37.418Z,43.69
2019-01-16T07:41:37.267Z,43.74
2019-01-16T07:42:37.619Z,43.65
2019-01-16T07:43:37.068Z,43.69
2019-01-16T07:44:37.088Z,43.69
2019-01-16T07:45:37.027Z,43.71
2019-01-16T07:46:38.206Z,43.75
2019-01-16T07:47:37.195Z,43.68
2019-01-16T07:48:37.424Z,43.7
2019-01-16T07:49:37.509Z,43.72
2019-01-16T07:50:37.050Z,43.71
2019-01-16T07:51:37.574Z,43.66
2019-01-16T07:52:37.274Z,43.71
2019-01-16T07:53:37.238Z,43.71
2019-01-16T07:54:37.505Z,43.65
2019-01-16T07:55:37.505Z,43.7
2019-01-16T07:56:36.978Z,43.67
2019-01-16T07:57:37.287Z,43.71
2019-01-16T07:58:37.210Z,43.68
2019-01-16T07:59:37.490Z,43.75
2019-01-16T08:00:37.793Z,43.71
2019-01-16T08:01:36.926Z,43.68
2019-01-16T08:02:37.460Z,43.71
2019-01-16T08:03:37.332Z,43.65
2019-01-16T08:04:37.240Z,43.68
2019-01-16T08:05:37.023Z,43.71
2019-01-16T08:06:37.149Z,43.72
2019-01-16T08:07:37.258Z,43.71
2019-01-16T08:08:37.081Z,43.7
2019-01-16T08:09:37.226Z,43.67
2019-01-16T08:10:37.225Z,43.7
2019-01-16T08:11:37.147Z,43.71
2019-01-16T08:12:36.893Z,43.73
2019-01-16T08:13:37.044Z,43.77
2019-01-16T08:14:37.112Z,43.76
2019-01-16T08:15:37.072Z,43.76
2019-01-16T08:16:37.481Z,43.75
2019-01-16T08:17:37.187Z,43.75
2019-01-16T08:18:36.922Z,43.72
2019-01-16T08:19:37.125Z,43.76
2019-01-16T08:20:37.284Z,43.73
2019-01-16T08:21:37.478Z,43.69
2019-01-16T08:22:37.359Z,43.7
2019-01-16T08:23:37.358Z,43.75
2019-01-16T08:24:37.089Z,43.73
2019-01-16T08:25:37.493Z,43.72
2019-01-16T08:26:37.001Z,43.72
2019-01-16T08:27:38.457Z,43.69
2019-01-16T08:28:37.359Z,43.69
2019-01-16T08:29:36.939Z,43.68
2019-01-16T08:30:37.460Z,43.68
2019-01-16T08:31:37.181Z,43.68
2019-01-16T08:32:37.342Z,43.66
2019-01-16T08:33:37.121Z,43.72
2019-01-16T08:34:37.748Z,43.69
2019-01-16T08:35:37.319Z,43.68
2019-01-16T08:36:37.019Z,43.69
2019-01-16T08:37:36.968Z,43.68
2019-01-16T08:38:37.542Z,43.67
2019-01-16T08:39:37.815Z,43.68
2019-01-16T08:40:37.012Z,43.7
2019-01-16T08:41:37.325Z,43.68
2019-01-16T08:42:37.243Z,43.66
2019-01-16T08:43:37.261Z,43.61
2019-01-16T08:44:38.464Z,43.63
2019-01-16T08:45:37.201Z,43.62
2019-01-16T08:46:37.447Z,43.62
2019-01-16T08:47:37.250Z,43.65
2019-01-16T08:48:37.172Z,43.62
2019-01-16T08:49:37.296Z,43.55
2019-01-16T08:50:37.177Z,43.62
2019-01-16T08:51:36.957Z,43.63
2019-01-16T08:52:37.464Z,43.6
2019-01-16T08:53:37.516Z,43.58
2019-01-16T08:54:37.264Z,43.6
2019-01-16T08:55:37.136Z,43.56
2019-01-16T08:56:37.191Z,43.62
2019-01-16T08:57:37.320Z,43.6
2019-01-16T08:58:37.374Z,43.58
2019-01-16T08:59:37.161Z,43.55
2019-01-16T09:00:37.068Z,43.57
2019-01-16T09:01:37.049Z,43.57
2019-01-16T09:02:37.367Z,43.55
2019-01-16T09:03:37.188Z,43.54
2019-01-16T09:04:37.117Z,43.55
2019-01-16T09:05:37.510Z,43.58
2019-01-16T09:06:37.234Z,43.53
2019-01-16T09:07:37.986Z,43.53
2019-01-16T09:08:36.866Z,43.52
2019-01-16T09:09:37.663Z,43.53
2019-01-16T09:10:37.007Z,43.54
2019-01-16T09:11:37.062Z,43.51
2019-01-16T09:12:37.026Z,43.5
2019-01-16T09:13:37.260Z,43.51
2019-01-16T09:14:37.509Z,43.51
2019-01-16T09:15:37.768Z,43.46
2019-01-16T09:16:37.058Z,43.5
2019-01-16T09:17:36.914Z,43.51
2019-01-16T09:18:37.578Z,43.52
2019-01-16T09:19:37.648Z,43.5
2019-01-16T09:20:40.521Z,43.47
2019-01-16T09:21:37.160Z,43.4
2019-01-16T09:22:37.399Z,43.46
2019-01-16T09:23:37.065Z,43.5
2019-01-16T09:24:37.434Z,43.48
2019-01-16T09:25:37.973Z,43.45
2019-01-16T09:26:36.990Z,43.45
2019-01-16T09:27:38.841Z,43.46
2019-01-16T09:28:37.934Z,43.44
2019-01-16T09:29:37.283Z,43.45
2019-01-16T09:30:36.884Z,43.45
2019-01-16T09:31:37.260Z,43.41
2019-01-16T09:32:37.282Z,43.44
2019-01-16T09:33:37.282Z,43.43
2019-01-16T09:34:37.469Z,43.43
2019-01-16T09:35:37.120Z,43.45
2019-01-16T09:36:37.194Z,43.43
2019-01-16T09:37:36.968Z,43.4
2019-01-16T09:38:37.673Z,43.44
2019-01-16T09:39:36.890Z,43.43
2019-01-16T09:40:37.410Z,43.41
2019-01-16T09:41:37.333Z,43.44
2019-01-16T09:42:37.131Z,43.43
2019-01-16T09:43:37.420Z,43.38
2019-01-16T09:44:37.083Z,43.42
2019-01-16T09:45:37.472Z,43.43
2019-01-16T09:46:37.134Z,43.37
2019-01-16T09:47:37.204Z,43.41
2019-01-16T09:48:37.018Z,43.44
2019-01-16T09:49:37.047Z,43.4
2019-01-16T09:50:36.983Z,43.44
2019-01-16T09:51:36.915Z,43.41
2019-01-16T09:52:37.510Z,43.38
2019-01-16T09:53:37.338Z,43.38
2019-01-16T09:54:37.120Z,43.36
2019-01-16T09:55:37.179Z,43.36
2019-01-16T09:56:36.996Z,43.4
2019-01-16T09:57:37.145Z,43.37
2019-01-16T09:58:37.063Z,43.38
2019-01-16T09:59:37.108Z,43.36
2019-01-16T10:00:37.050Z,43.37
2019-01-16T10:01:37.102Z,43.36
2019-01-16T10:02:37.171Z,43.33
2019-01-16T10:03:37.204Z,43.37
2019-01-16T10:04:37.078Z,43.36
2019-01-16T10:05:36.966Z,43.34
2019-01-16T10:06:38.057Z,43.33
2019-01-16T10:07:36.980Z,43.38
2019-01-16T10:08:37.608Z,43.3
2019-01-16T10:09:37.084Z,43.33
2019-01-16T10:10:37.223Z,43.34
2019-01-16T10:11:37.478Z,43.34
2019-01-16T10:12:37.078Z,43.35
2019-01-16T10:13:36.898Z,43.35
2019-01-16T10:14:37.538Z,43.35
2019-01-16T10:15:39.777Z,43.33
2019-01-16T10:16:37.406Z,43.35
2019-01-16T10:17:38.020Z,43.36
2019-01-16T10:18:37.321Z,43.32
2019-01-16T10:19:37.124Z,43.33
2019-01-16T10:20:37.807Z,43.31
2019-01-16T10:21:37.947Z,43.3
2019-01-16T10:22:37.206Z,43.32
2019-01-16T10:23:37.312Z,43.27
2019-01-16T10:24:37.217Z,43.33
2019-01-16T10:25:37.017Z,43.27
2019-01-16T10:26:37.199Z,43.26
2019-01-16T10:27:37.316Z,43.33
2019-01-16T10:28:38.954Z,43.27
2019-01-16T10:29:36.973Z,43.08
2019-01-16T10:30:37.073Z,42.39
2019-01-16T10:31:37.857Z,41.48
2019-01-16T10:32:37.355Z,40.98
2019-01-16T10:33:37.387Z,40.38
2019-01-16T10:34:37.148Z,40.71
2019-01-16T10:35:37.002Z,40.21
2019-01-16T10:36:36.929Z,40.29
2019-01-16T10:37:37.183Z,39.9
2019-01-16T10:38:36.872Z,39.74
2019-01-16T10:39:37.047Z,39.62
2019-01-16T10:40:36.985Z,39.33
2019-01-16T10:41:37.812Z,39.8
2019-01-16T10:42:37.238Z,40.56
2019-01-16T10:43:37.029Z,40.42
2019-01-16T10:44:37.405Z,40.48
2019-01-16T10:45:37.471Z,40.69
2019-01-16T10:46:37.090Z,40.89
2019-01-16T10:47:36.962Z,40.89
2019-01-16T10:48:37.037Z,41.09
2019-01-16T10:49:37.350Z,41.05
2019-01-16T10:50:37.010Z,41.29
2019-01-16T10:51:37.148Z,41.28
2019-01-16T10:52:36.927Z,41.4
2019-01-16T10:53:37.181Z,41.4
2019-01-16T10:54:37.218Z,41.54
2019-01-16T10:55:36.855Z,41.58
2019-01-16T10:56:38.853Z,41.64
2019-01-16T10:57:36.770Z,41.66
2019-01-16T10:58:37.189Z,41.68
2019-01-16T10:59:37.337Z,41.83
2019-01-16T11:00:36.791Z,41.77
2019-01-16T11:01:37.142Z,41.81
2019-01-16T11:02:36.981Z,41.83
2019-01-16T11:03:37.224Z,41.86
2019-01-16T11:04:36.928Z,41.94
2019-01-16T11:05:37.139Z,41.95
2019-01-16T11:06:37.030Z,41.94
2019-01-16T11:07:37.501Z,41.95
2019-01-16T11:08:37.065Z,41.99
2019-01-16T11:09:36.823Z,42.08
2019-01-16T11:10:37.187Z,42.12
2019-01-16T11:11:37.008Z,42.11
2019-01-16T11:12:37.091Z,42.08
2019-01-16T11:13:38.655Z,42.13
2019-01-16T11:14:36.990Z,42.11
2019-01-16T11:15:36.959Z,42.23
2019-01-16T11:16:38.967Z,42.17
2019-01-16T11:17:36.884Z,42.13
2019-01-16T11:18:37.004Z,42.21
2019-01-16T11:19:37.454Z,42.23
2019-01-16T11:20:37.132Z,42.2
2019-01-16T11:21:37.225Z,42.25
2019-01-16T11:22:36.981Z,42.24
2019-01-16T11:23:37.138Z,42.21
2019-01-16T11:24:37.239Z,42.29
2019-01-16T11:25:37.430Z,42.31
2019-01-16T11:26:36.802Z,42.32
2019-01-16T11:27:37.144Z,42.33
2019-01-16T11:28:37.001Z,42.3
2019-01-16T11:29:36.991Z,42.36
2019-01-16T11:30:37.121Z,42.37
2019-01-16T11:31:37.008Z,42.41
2019-01-16T11:32:36.915Z,42.43
2019-01-16T11:33:36.915Z,42.49
2019-01-16T11:34:37.233Z,42.37
2019-01-16T11:35:37.257Z,42.49
2019-01-16T11:36:36.894Z,42.47
2019-01-16T11:37:37.057Z,42.43
2019-01-16T11:38:36.951Z,42.47
2019-01-16T11:39:37.184Z,42.45
2019-01-16T11:40:36.884Z,42.49
2019-01-16T11:41:37.102Z,42.47
2019-01-16T11:42:37.065Z,42.43
2019-01-16T11:43:37.100Z,42.51
2019-01-16T11:44:36.984Z,42.47
2019-01-16T11:45:37.157Z,42.42
2019-01-16T11:46:36.904Z,42.51
2019-01-16T11:47:37.128Z,42.49
2019-01-16T11:48:39.620Z,42.43
2019-01-16T11:49:37.027Z,42.54
2019-01-16T11:50:37.182Z,42.45
2019-01-16T11:51:37.166Z,42.53
2019-01-16T11:52:36.869Z,42.54
2019-01-16T11:53:38.119Z,42.49
2019-01-16T11:54:37.386Z,42.51
2019-01-16T11:55:37.484Z,42.53
2019-01-16T11:56:37.018Z,42.51
2019-01-16T11:57:36.936Z,42.5
2019-01-16T11:58:37.923Z,42.53
2019-01-16T11:59:38.917Z,42.54
2019-01-16T12:00:37.654Z,42.55
2019-01-16T12:01:37.251Z,42.57
2019-01-16T12:02:39.148Z,42.53
2019-01-16T12:03:38.781Z,42.54
2019-01-16T12:04:36.886Z,42.56
2019-01-16T12:05:37.003Z,42.54
2019-01-16T12:06:37.267Z,42.59
2019-01-16T12:07:37.248Z,42.58
2019-01-16T12:08:37.176Z,42.54
2019-01-16T12:09:37.206Z,42.56
2019-01-16T12:10:37.354Z,42.65
2019-01-16T12:11:38.681Z,42.59
2019-01-16T12:12:36.920Z,42.59
2019-01-16T12:13:37.097Z,42.65
2019-01-16T12:14:37.233Z,42.63
2019-01-16T12:15:37.058Z,42.61
2019-01-16T12:16:37.765Z,42.66
2019-01-16T12:17:37.053Z,42.66
2019-01-16T12:18:37.247Z,42.64
2019-01-16T12:19:36.801Z,42.67
2019-01-16T12:20:37.149Z,42.63
2019-01-16T12:21:37.084Z,42.64
2019-01-16T12:22:36.869Z,42.63
2019-01-16T12:23:37.425Z,42.66
2019-01-16T12:24:37.258Z,42.63
2019-01-16T12:25:36.988Z,42.62
2019-01-16T12:26:36.945Z,42.62
2019-01-16T12:27:37.428Z,42.58
2019-01-16T12:28:36.874Z,42.63
2019-01-16T12:29:36.984Z,42.61
2019-01-16T12:30:37.151Z,42.69
2019-01-16T12:31:36.891Z,42.63
2019-01-16T12:32:36.904Z,42.67
2019-01-16T12:33:37.268Z,42.69
2019-01-16T12:34:36.848Z,42.62
2019-01-16T12:35:37.203Z,42.7
2019-01-16T12:36:36.852Z,42.73
2019-01-16T12:37:37.489Z,42.71
2019-01-16T12:38:36.923Z,42.71
2019-01-16T12:39:37.318Z,42.75
2019-01-16T12:40:37.003Z,42.71
2019-01-16T12:41:37.035Z,42.73
2019-01-16T12:42:37.222Z,42.74
2019-01-16T12:43:37.236Z,42.75
2019-01-16T12:44:37.203Z,42.83
2019-01-16T12:45:36.818Z,42.79
2019-01-16T12:46:37.492Z,42.74
2019-01-16T12:47:36.870Z,42.82
2019-01-16T12:48:36.938Z,42.77
2019-01-16T12:49:36.986Z,42.73
2019-01-16T12:50:36.879Z,42.78
2019-01-16T12:51:37.224Z,42.75
2019-01-16T12:52:37.396Z,42.79
2019-01-16T12:53:37.380Z,42.76
2019-01-16T12:54:37.055Z,42.75
2019-01-16T12:55:37.432Z,42.79